createdAt,value
2018-05-17T00:00:51.392Z,98315.87
2018-05-17T00:03:17.836Z,98308.02
2018-05-17T00:05:44.278Z,98306.85
2018-05-17T00:08:10.674Z,98302.98
2018-05-17T00:10:37.842Z,98305.97
2018-05-17T00:13:04.256Z,98315.73
2018-05-17T00:15:31.514Z,98312.14
2018-05-17T00:17:58.142Z,98305.17
2018-05-17T00:20:25.258Z,98308.55
2018-05-17T00:22:51.702Z,98308.41
2018-05-17T00:25:18.096Z,98304.09
2018-05-17T00:27:44.587Z,98307.44
2018-05-17T00:30:11.851Z,98307.09
2018-05-17T00:32:38.273Z,98304.59
2018-05-17T00:35:05.430Z,98306.59
2018-05-17T00:37:31.864Z,98304.70
2018-05-17T00:39:58.597Z,98305.73
2018-05-17T00:42:25.740Z,98303.59
2018-05-17T00:44:53.093Z,98302.09
2018-05-17T00:47:20.219Z,98296.49
2018-05-17T00:49:46.581Z,98294.55
2018-05-17T00:52:13.800Z,98294.94
2018-05-17T00:54:40.404Z,98286.86
2018-05-17T00:57:07.075Z,98282.56
2018-05-17T00:59:33.496Z,98277.80
2018-05-17T01:01:59.934Z,98276.31
2018-05-17T01:04:26.309Z,98276.95
2018-05-17T01:06:53.480Z,98279.97
2018-05-17T01:09:19.906Z,98266.75
2018-05-17T01:11:46.286Z,98272.03
2018-05-17T01:14:12.746Z,98267.79
2018-05-17T01:16:42.065Z,98270.82
2018-05-17T01:19:10.388Z,98273.03
2018-05-17T01:21:36.815Z,98278.09
2018-05-17T01:24:03.955Z,98280.14
2018-05-17T01:26:30.408Z,98282.70
2018-05-17T01:28:57.036Z,98278.84
2018-05-17T01:31:23.436Z,98275.79
2018-05-17T01:33:49.822Z,98278.80
2018-05-17T01:36:16.246Z,98280.25
2018-05-17T01:38:42.627Z,98280.70
2018-05-17T01:41:09.146Z,98277.49
2018-05-17T01:43:36.275Z,98272.58
2018-05-17T01:46:02.792Z,98266.91
2018-05-17T01:48:29.216Z,98273.30
2018-05-17T01:50:55.745Z,98274.81
2018-05-17T01:53:22.173Z,98275.41
2018-05-17T01:55:48.652Z,98278.00
2018-05-17T01:58:15.066Z,98280.53
2018-05-17T02:00:41.534Z,98282.38
2018-05-17T02:03:08.622Z,98278.20
2018-05-17T02:05:35.025Z,98273.82
2018-05-17T02:08:01.506Z,98280.93
2018-05-17T02:10:27.880Z,98269.79
2018-05-17T02:12:55.353Z,98268.76
2018-05-17T02:15:21.757Z,98277.66
2018-05-17T02:17:48.410Z,98275.42
2018-05-17T02:20:15.641Z,98276.08
2018-05-17T02:22:42.871Z,98282.78
2018-05-17T02:25:09.197Z,98289.27
2018-05-17T02:27:35.606Z,98291.02
2018-05-17T02:30:02.320Z,98293.52
2018-05-17T02:32:28.697Z,98294.70
2018-05-17T02:34:55.098Z,98297.84
2018-05-17T02:37:21.467Z,98301.22
2018-05-17T02:39:48.154Z,98301.08
2018-05-17T02:42:15.279Z,98299.36
2018-05-17T02:44:41.697Z,98301.37
2018-05-17T02:47:08.110Z,98306.02
2018-05-17T02:49:34.518Z,98304.16
2018-05-17T02:52:01.019Z,98305.86
2018-05-17T02:54:28.215Z,98304.02
2018-05-17T02:56:54.600Z,98309.48
2018-05-17T02:59:21.719Z,98313.17
2018-05-17T03:01:48.168Z,98308.39
2018-05-17T03:04:14.725Z,98315.69
2018-05-17T03:06:41.842Z,98314.15
2018-05-17T03:09:08.227Z,98319.16
2018-05-17T03:11:34.616Z,98316.02
2018-05-17T03:14:01.003Z,98315.69
2018-05-17T03:16:27.397Z,98325.00
2018-05-17T03:18:54.545Z,98318.41
2018-05-17T03:21:21.730Z,98317.09
2018-05-17T03:23:48.155Z,98322.90
2018-05-17T03:26:14.543Z,98333.70
2018-05-17T03:28:40.915Z,98331.17
2018-05-17T03:31:07.385Z,98325.16
2018-05-17T03:33:33.746Z,98324.30
2018-05-17T03:36:00.424Z,98330.76
2018-05-17T03:38:26.808Z,98323.31
2018-05-17T03:40:53.482Z,98328.53
2018-05-17T03:43:20.636Z,98328.88
2018-05-17T03:45:47.795Z,98328.27
2018-05-17T03:48:14.288Z,98330.66
2018-05-17T03:50:40.816Z,98334.05
2018-05-17T03:53:07.220Z,98325.98
2018-05-17T03:55:33.617Z,98330.08
2018-05-17T03:58:00.734Z,98332.65
2018-05-17T04:03:37.936Z,98338.46
2018-05-17T04:06:22.939Z,98343.02
2018-05-17T04:08:49.342Z,98339.92
2018-05-17T04:11:16.367Z,98338.05
2018-05-17T04:13:42.805Z,98334.89
2018-05-17T04:16:09.285Z,98333.55
2018-05-17T04:18:36.507Z,98348.45
2018-05-17T04:21:02.915Z,98346.32
2018-05-17T04:23:29.306Z,98352.55
2018-05-17T04:25:56.458Z,98347.72
2018-05-17T04:28:22.851Z,98347.78
2018-05-17T04:30:49.522Z,98347.20
2018-05-17T04:33:16.695Z,98348.20
2018-05-17T04:35:43.194Z,98348.61
2018-05-17T04:38:10.309Z,98352.73
2018-05-17T04:40:36.723Z,98354.41
2018-05-17T04:43:03.273Z,98363.64
2018-05-17T04:45:29.625Z,98366.80
2018-05-17T04:47:55.998Z,98365.97
2018-05-17T04:50:22.361Z,98371.62
2018-05-17T04:52:48.774Z,98368.66
2018-05-17T04:55:15.499Z,98367.18
2018-05-17T04:57:41.977Z,98364.23
2018-05-17T05:00:08.433Z,98375.55
2018-05-17T05:02:36.143Z,98374.06
2018-05-17T05:05:02.608Z,98369.45
2018-05-17T05:07:29.476Z,98371.53
2018-05-17T05:09:56.173Z,98363.55
2018-05-17T05:12:22.874Z,98361.64
2018-05-17T05:14:50.232Z,98366.50
2018-05-17T05:17:17.591Z,98372.96
2018-05-17T05:19:43.980Z,98373.53
2018-05-17T05:22:10.627Z,98382.44
2018-05-17T05:24:37.005Z,98390.25
2018-05-17T05:27:03.900Z,98389.00
2018-05-17T05:29:31.031Z,98392.97
2018-05-17T05:31:57.554Z,98394.41
2018-05-17T05:34:24.153Z,98394.02
2018-05-17T05:36:51.276Z,98404.42
2018-05-17T05:39:19.569Z,98404.06
2018-05-17T05:41:46.785Z,98393.77
2018-05-17T05:44:13.177Z,98388.33
2018-05-17T05:46:39.776Z,98392.83
2018-05-17T05:49:06.957Z,98382.91
2018-05-17T05:51:33.366Z,98378.92
2018-05-17T05:53:59.812Z,98376.48
2018-05-17T05:56:26.934Z,98386.88
2018-05-17T05:58:53.608Z,98376.27
2018-05-17T06:01:20.022Z,98381.21
2018-05-17T06:03:47.164Z,98375.94
2018-05-17T06:06:14.370Z,98377.89
2018-05-17T06:08:40.770Z,98379.60
2018-05-17T06:11:07.956Z,98384.23
2018-05-17T06:13:34.313Z,98391.71
2018-05-17T06:16:00.751Z,98397.30
2018-05-17T06:18:27.305Z,98397.16
2018-05-17T06:20:54.486Z,98396.53
2018-05-17T06:23:21.043Z,98393.50
2018-05-17T06:25:47.640Z,98397.48
2018-05-17T06:28:14.833Z,98404.02
2018-05-17T06:30:41.240Z,98408.15
2018-05-17T06:33:08.051Z,98412.69
2018-05-17T06:35:37.144Z,98405.97
2018-05-17T06:38:04.397Z,98413.27
2018-05-17T06:40:30.849Z,98417.67
2018-05-17T06:42:57.403Z,98409.96
2018-05-17T06:45:24.003Z,98412.14
2018-05-17T06:47:51.533Z,98404.84
2018-05-17T06:50:18.381Z,98411.67
2018-05-17T06:52:44.949Z,98427.01
2018-05-17T06:55:12.157Z,98428.80
2018-05-17T06:57:38.720Z,98429.54
2018-05-17T07:00:07.065Z,98427.38
2018-05-17T07:02:33.759Z,98428.25
2018-05-17T07:05:01.331Z,98425.95
2018-05-17T07:07:27.739Z,98430.67
2018-05-17T07:09:55.734Z,98435.94
2018-05-17T07:12:22.357Z,98445.84
2018-05-17T07:14:49.683Z,98444.41
2018-05-17T07:17:18.159Z,98442.64
2018-05-17T07:19:44.566Z,98454.39
2018-05-17T07:22:11.754Z,98449.06
2018-05-17T07:24:46.073Z,98449.94
2018-05-17T07:27:12.467Z,98450.40
2018-05-17T07:29:39.439Z,98455.33
2018-05-17T07:32:05.801Z,98463.20
2018-05-17T07:34:32.988Z,98460.47
2018-05-17T07:36:59.437Z,98462.03
2018-05-17T07:39:25.835Z,98465.28
2018-05-17T07:41:52.198Z,98466.36
2018-05-17T07:44:19.341Z,98463.98
2018-05-17T07:46:45.796Z,98470.02
2018-05-17T07:49:12.564Z,98482.92
2018-05-17T07:51:40.042Z,98480.27
2018-05-17T07:54:06.549Z,98479.95
2018-05-17T07:56:32.970Z,98478.91
2018-05-17T07:58:59.451Z,98488.67
2018-05-17T08:01:25.879Z,98491.23
2018-05-17T08:03:52.269Z,98495.14
2018-05-17T08:06:18.947Z,98505.33
2018-05-17T08:08:46.166Z,98507.83
2018-05-17T08:11:13.417Z,98501.16
2018-05-17T08:13:39.952Z,98492.95
2018-05-17T08:16:06.349Z,98486.95
2018-05-17T08:18:32.840Z,98498.09
2018-05-17T08:21:00.006Z,98498.91
2018-05-17T08:23:26.407Z,98498.67
2018-05-17T08:25:53.075Z,98510.60
2018-05-17T08:28:19.482Z,98512.89
2018-05-17T08:30:46.625Z,98513.66
2018-05-17T08:33:13.249Z,98512.78
2018-05-17T08:35:39.860Z,98515.55
2018-05-17T08:38:06.393Z,98525.46
2018-05-17T08:40:32.804Z,98535.14
2018-05-17T08:42:59.155Z,98528.33
2018-05-17T08:45:25.590Z,98531.13
2018-05-17T08:47:51.966Z,98531.02
2018-05-17T08:50:18.651Z,98535.16
2018-05-17T08:52:45.013Z,98541.31
2018-05-17T08:55:11.506Z,98535.88
2018-05-17T08:57:37.985Z,98542.45
2018-05-17T09:00:04.580Z,98538.19
2018-05-17T09:02:30.978Z,98541.03
2018-05-17T09:05:00.593Z,98543.88
2018-05-17T09:07:27.716Z,98544.33
2018-05-17T09:09:54.539Z,98544.80
2018-05-17T09:12:20.933Z,98559.03
2018-05-17T09:14:48.627Z,98559.99
2018-05-17T09:17:15.161Z,98556.40
2018-05-17T09:19:41.867Z,98561.21
2018-05-17T09:22:12.816Z,98552.13
2018-05-17T09:24:40.008Z,98552.68
2018-05-17T09:27:07.563Z,98548.33
2018-05-17T09:29:34.090Z,98548.55
2018-05-17T09:32:00.667Z,98550.40
2018-05-17T09:34:27.877Z,98548.39
2018-05-17T09:36:54.756Z,98547.39
2018-05-17T09:39:22.798Z,98550.61
2018-05-17T09:41:49.246Z,98555.72
2018-05-17T09:44:15.652Z,98553.62
2018-05-17T09:46:42.119Z,98554.39
2018-05-17T09:49:08.843Z,98555.59
2018-05-17T09:51:36.585Z,98560.27
2018-05-17T09:54:03.551Z,98564.91
2018-05-17T09:56:29.994Z,98565.73
2018-05-17T09:58:57.727Z,98568.18
2018-05-17T10:01:24.373Z,98573.09
2018-05-17T10:03:51.175Z,98576.16
2018-05-17T10:06:19.192Z,98571.70
2018-05-17T10:08:46.198Z,98570.24
2018-05-17T10:11:13.107Z,98580.86
2018-05-17T10:13:43.204Z,98576.95
2018-05-17T10:16:09.735Z,98582.11
2018-05-17T10:18:36.169Z,98584.03
2018-05-17T10:21:02.574Z,98586.38
2018-05-17T10:23:29.081Z,98579.72
2018-05-17T10:25:56.187Z,98585.84
2018-05-17T10:28:22.618Z,98582.00
2018-05-17T10:30:49.069Z,98581.98
2018-05-17T10:33:15.462Z,98576.51
2018-05-17T10:35:42.021Z,98580.76
2018-05-17T10:38:08.410Z,98580.18
2018-05-17T10:40:37.041Z,98579.91
2018-05-17T10:43:04.047Z,98581.20
2018-05-17T10:45:31.123Z,98578.31
2018-05-17T10:47:57.717Z,98580.57
2018-05-17T10:50:26.295Z,98583.91
2018-05-17T10:52:53.765Z,98583.30
2018-05-17T10:55:20.709Z,98584.80
2018-05-17T10:57:48.178Z,98590.78
2018-05-17T11:00:15.256Z,98584.13
2018-05-17T11:02:42.213Z,98585.28
2018-05-17T11:05:08.848Z,98583.31
2018-05-17T11:07:35.283Z,98588.64
2018-05-17T11:10:03.031Z,98585.44
2018-05-17T11:12:29.480Z,98585.96
2018-05-17T11:14:55.864Z,98596.53
2018-05-17T11:17:22.355Z,98586.19
2018-05-17T11:19:50.217Z,98590.98
2018-05-17T11:22:17.025Z,98591.84
2018-05-17T11:24:43.597Z,98589.70
2018-05-17T11:27:11.557Z,98587.20
2018-05-17T11:29:39.466Z,98584.69
2018-05-17T11:32:07.899Z,98584.27
2018-05-17T11:34:35.626Z,98590.42
2018-05-17T11:37:02.530Z,98592.13
2018-05-17T11:39:29.511Z,98589.04
2018-05-17T11:41:56.154Z,98588.97
2018-05-17T11:44:23.436Z,98590.88
2018-05-17T11:46:50.066Z,98595.01
2018-05-17T11:49:16.645Z,98598.37
2018-05-17T11:51:44.110Z,98590.84
2018-05-17T11:54:11.773Z,98592.28
2018-05-17T11:56:39.749Z,98597.00
2018-05-17T11:59:07.124Z,98596.41
2018-05-17T12:01:33.549Z,98599.14
2018-05-17T12:04:01.030Z,98595.38
2018-05-17T12:06:27.540Z,98595.02
2018-05-17T12:08:54.017Z,98601.66
2018-05-17T12:11:20.715Z,98594.42
2018-05-17T12:13:47.298Z,98589.13
2018-05-17T12:16:13.916Z,98583.25
2018-05-17T12:18:41.860Z,98586.93
2018-05-17T12:21:08.537Z,98591.23
2018-05-17T12:23:35.539Z,98587.70
2018-05-17T12:26:02.888Z,98582.09
2018-05-17T12:28:30.375Z,98591.78
2018-05-17T12:30:56.877Z,98588.58
2018-05-17T12:33:23.528Z,98584.05
2018-05-17T12:35:50.112Z,98593.27
2018-05-17T12:38:16.491Z,98587.83
2018-05-17T12:40:43.685Z,98593.25
2018-05-17T12:43:10.319Z,98594.57
2018-05-17T12:45:37.361Z,98592.77
2018-05-17T12:48:04.879Z,98588.08
2018-05-17T12:50:31.794Z,98586.58
2018-05-17T12:52:58.491Z,98584.70
2018-05-17T12:55:25.210Z,98583.98
2018-05-17T12:57:53.231Z,98586.22
2018-05-17T13:00:20.445Z,98588.92
2018-05-17T13:02:46.849Z,98590.34
2018-05-17T13:05:28.236Z,98592.16
2018-05-17T13:07:55.706Z,98597.05
2018-05-17T13:10:22.450Z,98593.05
2018-05-17T13:12:49.080Z,98590.22
2018-05-17T13:15:15.454Z,98592.38
2018-05-17T13:17:41.844Z,98594.25
2018-05-17T13:20:08.242Z,98587.98
2018-05-17T13:22:34.646Z,98592.66
2018-05-17T13:25:01.015Z,98597.34
2018-05-17T13:27:28.216Z,98590.72
2018-05-17T13:29:55.172Z,98592.34
2018-05-17T13:32:21.591Z,98587.48
2018-05-17T13:34:47.962Z,98590.06
2018-05-17T13:37:14.356Z,98588.88
2018-05-17T13:39:40.830Z,98593.52
2018-05-17T13:42:07.374Z,98584.84
2018-05-17T13:44:35.557Z,98575.40
2018-05-17T13:47:03.111Z,98576.59
2018-05-17T13:49:29.543Z,98577.84
2018-05-17T13:51:55.935Z,98581.20
2018-05-17T13:54:22.303Z,98586.03
2018-05-17T13:56:49.009Z,98586.66
2018-05-17T13:59:15.436Z,98592.41
2018-05-17T14:01:42.127Z,98596.83
2018-05-17T14:04:09.462Z,98597.36
2018-05-17T14:06:35.862Z,98594.98
2018-05-17T14:09:02.429Z,98592.48
2018-05-17T14:11:28.857Z,98593.27
2018-05-17T14:13:55.239Z,98597.59
2018-05-17T14:16:21.623Z,98590.89
2018-05-17T14:18:48.772Z,98600.06
2018-05-17T14:21:15.455Z,98590.56
2018-05-17T14:23:41.916Z,98596.55
2018-05-17T14:26:08.301Z,98596.63
2018-05-17T14:28:35.445Z,98595.61
2018-05-17T14:31:02.631Z,98598.03
2018-05-17T14:33:29.189Z,98600.92
2018-05-17T14:35:55.895Z,98597.92
2018-05-17T14:38:22.651Z,98599.22
2018-05-17T14:40:49.109Z,98597.64
2018-05-17T14:43:15.483Z,98596.66
2018-05-17T14:45:42.873Z,98593.58
2018-05-17T14:48:09.238Z,98596.52
2018-05-17T14:50:35.785Z,98598.36
2018-05-17T14:53:02.938Z,98600.96
2018-05-17T14:55:29.353Z,98598.51
2018-05-17T14:57:56.312Z,98597.14
2018-05-17T15:00:22.743Z,98600.30
2018-05-17T15:02:49.157Z,98599.58
2018-05-17T15:05:15.540Z,98593.78
2018-05-17T15:07:42.721Z,98594.08
2018-05-17T15:10:09.153Z,98590.56
2018-05-17T15:12:35.518Z,98597.70
2018-05-17T15:15:01.900Z,98594.34
2018-05-17T15:17:28.692Z,98595.81
2018-05-17T15:19:55.307Z,98594.90
2018-05-17T15:22:21.784Z,98592.92
2018-05-17T15:24:48.958Z,98583.97
2018-05-17T15:27:15.467Z,98584.22
2018-05-17T15:29:41.957Z,98577.88
2018-05-17T15:32:08.449Z,98578.83
2018-05-17T15:34:35.624Z,98577.77
2018-05-17T15:37:02.081Z,98585.02
2018-05-17T15:39:29.503Z,98597.14
2018-05-17T15:41:55.898Z,98598.83
2018-05-17T15:44:22.321Z,98598.51
2018-05-17T15:46:48.853Z,98591.34
2018-05-17T15:49:15.241Z,98598.49
2018-05-17T15:51:42.392Z,98595.62
2018-05-17T15:54:10.087Z,98590.95
2018-05-17T15:56:36.483Z,98591.61
2018-05-17T15:59:02.921Z,98593.25
2018-05-17T16:01:29.875Z,98590.03
2018-05-17T16:03:56.776Z,98591.90
2018-05-17T16:06:23.527Z,98592.03
2018-05-17T16:08:51.074Z,98588.70
2018-05-17T16:11:17.524Z,98594.36
2018-05-17T16:13:44.658Z,98602.72
2018-05-17T16:16:11.126Z,98596.35
2018-05-17T16:18:37.857Z,98592.25
2018-05-17T16:21:04.368Z,98591.63
2018-05-17T16:23:31.646Z,98592.58
2018-05-17T16:25:58.068Z,98601.11
2018-05-17T16:28:25.211Z,98594.04
2018-05-17T16:30:52.381Z,98607.96
2018-05-17T16:33:18.802Z,98604.63
2018-05-17T16:35:46.204Z,98595.22
2018-05-17T16:38:12.896Z,98603.19
2018-05-17T16:40:39.403Z,98590.67
2018-05-17T16:43:05.889Z,98607.25
2018-05-17T16:45:32.380Z,98603.31
2018-05-17T16:47:59.574Z,98606.91
2018-05-17T16:50:26.032Z,98605.10
2018-05-17T16:52:52.658Z,98607.73
2018-05-17T16:55:19.103Z,98613.31
2018-05-17T16:57:45.536Z,98613.48
2018-05-17T17:00:13.106Z,98613.80
2018-05-17T17:02:39.582Z,98620.88
2018-05-17T17:05:06.786Z,98620.38
2018-05-17T17:07:34.608Z,98617.67
2018-05-17T17:10:01.215Z,98622.59
2018-05-17T17:12:28.469Z,98625.56
2018-05-17T17:14:54.894Z,98617.01
2018-05-17T17:17:22.839Z,98625.67
2018-05-17T17:19:50.139Z,98629.24
2018-05-17T17:22:16.762Z,98627.77
2018-05-17T17:24:44.004Z,98622.85
2018-05-17T17:27:11.202Z,98627.57
2018-05-17T17:29:37.659Z,98625.09
2018-05-17T17:32:04.699Z,98624.98
2018-05-17T17:34:31.210Z,98625.70
2018-05-17T17:36:57.706Z,98629.11
2018-05-17T17:39:25.118Z,98631.53
2018-05-17T17:41:51.703Z,98631.27
2018-05-17T17:44:18.184Z,98629.98
2018-05-17T17:46:45.317Z,98626.90
2018-05-17T17:49:12.198Z,98627.85
2018-05-17T17:51:39.453Z,98631.45
2018-05-17T17:54:06.058Z,98630.87
2018-05-17T17:56:32.481Z,98634.01
2018-05-17T17:58:58.921Z,98639.33
2018-05-17T18:01:25.386Z,98635.89
2018-05-17T18:03:53.053Z,98632.94
2018-05-17T18:06:19.698Z,98634.12
2018-05-17T18:08:46.082Z,98629.92
2018-05-17T18:11:12.567Z,98626.89
2018-05-17T18:13:39.093Z,98626.63
2018-05-17T18:16:05.752Z,98630.88
2018-05-17T18:18:33.024Z,98632.00
2018-05-17T18:21:00.407Z,98640.09
2018-05-17T18:23:26.970Z,98639.63
2018-05-17T18:25:53.453Z,98643.19
2018-05-17T18:28:21.120Z,98642.66
2018-05-17T18:30:47.968Z,98637.61
2018-05-17T18:33:14.612Z,98637.13
2018-05-17T18:35:41.057Z,98640.13
2018-05-17T18:38:08.360Z,98640.28
2018-05-17T18:40:36.518Z,98635.87
2018-05-17T18:43:03.863Z,98642.27
2018-05-17T18:45:33.289Z,98635.64
2018-05-17T18:48:00.955Z,98646.33
2018-05-17T18:50:29.295Z,98647.75
2018-05-17T18:52:56.740Z,98644.67
2018-05-17T18:55:31.103Z,98648.08
2018-05-17T18:57:58.099Z,98645.05
2018-05-17T19:00:24.946Z,98649.17
2018-05-17T19:02:52.275Z,98652.28
2018-05-17T19:05:26.010Z,98659.55
2018-05-17T19:07:53.515Z,98656.28
2018-05-17T19:10:20.695Z,98664.94
2018-05-17T19:12:47.572Z,98661.29
2018-05-17T19:15:15.269Z,98660.55
2018-05-17T19:17:42.003Z,98666.80
2018-05-17T19:20:09.447Z,98665.09
2018-05-17T19:22:37.422Z,98665.20
2018-05-17T19:25:03.870Z,98675.41
2018-05-17T19:27:31.415Z,98674.09
2018-05-17T19:29:57.915Z,98677.42
2018-05-17T19:32:24.924Z,98681.59
2018-05-17T19:34:52.489Z,98680.31
2018-05-17T19:37:19.811Z,98683.94
2018-05-17T19:39:46.210Z,98688.46
2018-05-17T19:42:12.699Z,98693.78
2018-05-17T19:44:39.956Z,98690.83
2018-05-17T19:47:07.238Z,98693.37
2018-05-17T19:49:33.828Z,98697.66
2018-05-17T19:52:01.562Z,98702.75
2018-05-17T19:54:28.173Z,98703.31
2018-05-17T19:56:55.238Z,98709.58
2018-05-17T19:59:22.699Z,98706.88
2018-05-17T20:01:49.491Z,98712.19
2018-05-17T20:04:17.386Z,98711.50
2018-05-17T20:06:44.002Z,98713.66
2018-05-17T20:09:10.427Z,98715.33
2018-05-17T20:11:37.713Z,98711.39
2018-05-17T20:14:05.284Z,98712.41
2018-05-17T20:16:39.288Z,98716.12
2018-05-17T20:19:05.801Z,98715.50
2018-05-17T20:21:32.417Z,98716.95
2018-05-17T20:23:59.705Z,98709.41
2018-05-17T20:26:26.258Z,98711.67
2018-05-17T20:28:52.710Z,98714.01
2018-05-17T20:31:19.105Z,98713.31
2018-05-17T20:33:46.274Z,98714.78
2018-05-17T20:36:13.100Z,98717.13
2018-05-17T20:38:40.510Z,98715.39
2018-05-17T20:41:08.958Z,98711.90
2018-05-17T20:43:35.566Z,98711.63
2018-05-17T20:46:02.203Z,98714.48
2018-05-17T20:48:28.657Z,98723.67
2018-05-17T20:50:55.141Z,98728.31
2018-05-17T20:53:22.317Z,98724.14
2018-05-17T20:55:49.747Z,98724.84
2018-05-17T20:58:16.909Z,98726.72
2018-05-17T21:00:45.164Z,98727.03
2018-05-17T21:03:11.678Z,98724.62
2018-05-17T21:05:38.155Z,98725.23
2018-05-17T21:08:05.352Z,98724.14
2018-05-17T21:10:31.830Z,98720.68
2018-05-17T21:12:59.192Z,98726.75
2018-05-17T21:15:26.500Z,98724.81
2018-05-17T21:17:52.953Z,98720.68
2018-05-17T21:20:19.736Z,98724.34
2018-05-17T21:22:46.132Z,98724.22
2018-05-17T21:25:12.612Z,98720.58
2018-05-17T21:27:40.584Z,98720.36
2018-05-17T21:30:07.109Z,98723.44
2018-05-17T21:32:33.542Z,98717.86
2018-05-17T21:34:59.912Z,98723.23
2018-05-17T21:37:26.491Z,98719.55
2018-05-17T21:39:53.704Z,98730.91
2018-05-17T21:42:20.101Z,98730.77
2018-05-17T21:44:46.612Z,98732.52
2018-05-17T21:47:13.149Z,98731.33
2018-05-17T21:49:40.353Z,98728.55
2018-05-17T21:52:06.936Z,98732.97
2018-05-17T21:54:34.137Z,98730.59
2018-05-17T21:57:00.521Z,98734.64
2018-05-17T21:59:27.997Z,98729.61
2018-05-17T22:01:54.620Z,98729.67
2018-05-17T22:04:22.146Z,98736.36
2018-05-17T22:06:48.563Z,98737.83
2018-05-17T22:09:14.997Z,98729.90
2018-05-17T22:11:41.433Z,98738.29
2018-05-17T22:14:07.987Z,98730.67
2018-05-17T22:16:34.436Z,98731.77
2018-05-17T22:19:01.573Z,98736.70
2018-05-17T22:21:27.974Z,98730.24
2018-05-17T22:23:54.372Z,98731.82
2018-05-17T22:26:20.812Z,98732.66
2018-05-17T22:28:47.285Z,98737.41
2018-05-17T22:31:13.689Z,98735.34
2018-05-17T22:33:40.173Z,98740.78
2018-05-17T22:36:06.530Z,98734.87
2018-05-17T22:41:06.354Z,98733.72
2018-05-17T22:43:32.776Z,98720.86
2018-05-17T22:46:00.090Z,98725.59
2018-05-17T22:48:26.695Z,98720.77
2018-05-17T22:50:53.215Z,98716.24
2018-05-17T22:53:19.656Z,98721.98
2018-05-17T22:55:46.190Z,98719.84
2018-05-17T22:58:28.976Z,98722.05
2018-05-17T23:00:56.105Z,98722.02
2018-05-17T23:03:22.529Z,98719.66
2018-05-17T23:05:48.962Z,98718.13
2018-05-17T23:08:15.371Z,98721.50
2018-05-17T23:10:41.825Z,98725.76
2018-05-17T23:13:08.291Z,98725.71
2018-05-17T23:15:34.778Z,98724.93
2018-05-17T23:18:01.271Z,98726.76
2018-05-17T23:20:28.395Z,98726.83
2018-05-17T23:22:54.834Z,98732.08
2018-05-17T23:25:21.274Z,98728.33
2018-05-17T23:27:47.770Z,98725.42
2018-05-17T23:30:14.239Z,98724.55
2018-05-17T23:32:40.614Z,98731.62
2018-05-17T23:35:07.045Z,98726.02
2018-05-17T23:37:33.549Z,98729.27
2018-05-17T23:40:19.071Z,98728.71
2018-05-17T23:42:55.490Z,98720.20
2018-05-17T23:45:21.925Z,98714.30
2018-05-17T23:47:48.699Z,98724.66
2018-05-17T23:50:15.137Z,98721.84
2018-05-17T23:52:41.530Z,98719.34
2018-05-17T23:55:08.908Z,98719.80
2018-05-17T23:57:36.036Z,98722.30
